Thomas, New Mexico
Current Conditions -  °F | °C
As of 5:55 PM on Tuesday 25 Nov 2014 (Local Time) from KCAO Reporting Station
Clear Clear  
Wind Chill: -2°   Ceiling: Unl
Heat Index:   Visibility: 10mi
Dew Point: -11°   Wind: 9mph
Humidity: 40%   Direction: 290°WNW
Pressure: 29.96"   Gusts: NA
Location:  36.2639°N, 103.376°W
Report Text: KCAO 260055Z AUTO 29008KT 10SM CLR 02/M11 A2996 RMK AO2 SLP168 T00171106
Loading
Personal Weather Stations






























Interactive Weather Map New forecast layout! Learn more

10-Day Weather Forecast

Advertisements
Track Severe Weather on mobile